El Paso, Illinois
Current Conditions -  °F | °C
As of 3:56 AM on Sunday 26 Oct 2014 (Local Time) from KBMI Reporting Station
Clear Clear  
Wind Chill: 51°   Ceiling: Unl
Heat Index: 51°   Visibility: 10mi
Dew Point: 34°   Wind: 12mph
Humidity: 52%   Direction: 350°N
Pressure: 30.03"   Gusts: NA
Location:  40.74°N, 89.02°W
Report Text: KBMI 260856Z AUTO 35010KT 10SM CLR 11/01 A3003 RMK AO2 58002 T01050011 SLP163
Loading
Personal Weather Stations






























Interactive Weather Map
Tropical Storm Tracking
New forecast layout! Learn more

10-Day Weather Forecast

Advertisements
Track Severe Weather on mobile